sensor_id;sensor_type;location;lat;lon;timestamp;P1;durP1;ratioP1;P2;durP2;ratioP2
67272;SDS011;54190;49.770;9.250;2023-04-25T00:01:14;5.27;;;4.50;;
67272;SDS011;54190;49.770;9.250;2023-04-25T00:03:40;6.30;;;4.77;;
67272;SDS011;54190;49.770;9.250;2023-04-25T00:06:06;11.20;;;4.77;;
67272;SDS011;54190;49.770;9.250;2023-04-25T00:08:32;6.30;;;4.60;;
67272;SDS011;54190;49.770;9.250;2023-04-25T00:10:58;5.97;;;4.60;;
67272;SDS011;54190;49.770;9.250;2023-04-25T00:13:25;5.57;;;3.97;;
67272;SDS011;54190;49.770;9.250;2023-04-25T00:15:51;4.40;;;3.57;;
67272;SDS011;54190;49.770;9.250;2023-04-25T00:18:25;4.13;;;3.37;;
67272;SDS011;54190;49.770;9.250;2023-04-25T00:20:54;7.00;;;3.33;;
67272;SDS011;54190;49.770;9.250;2023-04-25T00:23:19;6.40;;;3.60;;
67272;SDS011;54190;49.770;9.250;2023-04-25T00:25:49;5.10;;;3.77;;
67272;SDS011;54190;49.770;9.250;2023-04-25T00:28:15;4.83;;;3.67;;
67272;SDS011;54190;49.770;9.250;2023-04-25T00:30:42;6.00;;;3.93;;
67272;SDS011;54190;49.770;9.250;2023-04-25T00:33:08;4.40;;;3.53;;
67272;SDS011;54190;49.770;9.250;2023-04-25T00:35:35;4.87;;;3.63;;
67272;SDS011;54190;49.770;9.250;2023-04-25T00:38:01;5.33;;;3.80;;
67272;SDS011;54190;49.770;9.250;2023-04-25T00:40:27;5.23;;;3.10;;
67272;SDS011;54190;49.770;9.250;2023-04-25T00:42:53;4.13;;;3.30;;
67272;SDS011;54190;49.770;9.250;2023-04-25T00:45:19;4.83;;;3.27;;
67272;SDS011;54190;49.770;9.250;2023-04-25T00:47:46;4.00;;;2.90;;
67272;SDS011;54190;49.770;9.250;2023-04-25T00:50:12;4.10;;;3.10;;
67272;SDS011;54190;49.770;9.250;2023-04-25T00:52:38;6.40;;;3.40;;
67272;SDS011;54190;49.770;9.250;2023-04-25T00:55:08;5.30;;;3.20;;
67272;SDS011;54190;49.770;9.250;2023-04-25T00:57:35;5.00;;;3.00;;
67272;SDS011;54190;49.770;9.250;2023-04-25T01:00:02;4.70;;;3.13;;
67272;SDS011;54190;49.770;9.250;2023-04-25T01:02:30;3.83;;;2.73;;
67272;SDS011;54190;49.770;9.250;2023-04-25T01:04:56;3.70;;;2.70;;
67272;SDS011;54190;49.770;9.250;2023-04-25T01:07:22;3.40;;;2.73;;
67272;SDS011;54190;49.770;9.250;2023-04-25T01:09:48;4.00;;;2.80;;
67272;SDS011;54190;49.770;9.250;2023-04-25T01:12:17;3.67;;;2.50;;
67272;SDS011;54190;49.770;9.250;2023-04-25T01:14:42;4.83;;;2.47;;
67272;SDS011;54190;49.770;9.250;2023-04-25T01:17:09;3.10;;;2.43;;
67272;SDS011;54190;49.770;9.250;2023-04-25T01:19:35;4.50;;;2.60;;
67272;SDS011;54190;49.770;9.250;2023-04-25T01:22:01;3.77;;;3.13;;
67272;SDS011;54190;49.770;9.250;2023-04-25T01:24:29;3.93;;;2.80;;
67272;SDS011;54190;49.770;9.250;2023-04-25T01:26:58;3.37;;;2.80;;
67272;SDS011;54190;49.770;9.250;2023-04-25T01:29:26;3.60;;;2.90;;
67272;SDS011;54190;49.770;9.250;2023-04-25T01:31:53;4.70;;;3.00;;
67272;SDS011;54190;49.770;9.250;2023-04-25T01:34:19;4.23;;;2.93;;
67272;SDS011;54190;49.770;9.250;2023-04-25T01:36:46;5.53;;;3.10;;
67272;SDS011;54190;49.770;9.250;2023-04-25T01:39:14;4.37;;;3.30;;
67272;SDS011;54190;49.770;9.250;2023-04-25T01:41:40;3.80;;;2.80;;
67272;SDS011;54190;49.770;9.250;2023-04-25T01:44:06;3.40;;;2.70;;
67272;SDS011;54190;49.770;9.250;2023-04-25T01:46:32;4.93;;;3.33;;
67272;SDS011;54190;49.770;9.250;2023-04-25T01:48:59;5.23;;;3.30;;
67272;SDS011;54190;49.770;9.250;2023-04-25T01:51:25;4.17;;;3.30;;
67272;SDS011;54190;49.770;9.250;2023-04-25T01:53:50;4.60;;;3.17;;
67272;SDS011;54190;49.770;9.250;2023-04-25T01:56:17;4.57;;;3.50;;
67272;SDS011;54190;49.770;9.250;2023-04-25T01:58:43;4.27;;;3.43;;
67272;SDS011;54190;49.770;9.250;2023-04-25T02:01:18;4.93;;;4.20;;
67272;SDS011;54190;49.770;9.250;2023-04-25T02:03:53;6.90;;;3.50;;
67272;SDS011;54190;49.770;9.250;2023-04-25T02:06:25;5.73;;;3.80;;
67272;SDS011;54190;49.770;9.250;2023-04-25T02:08:52;4.90;;;3.00;;
67272;SDS011;54190;49.770;9.250;2023-04-25T02:11:18;4.10;;;3.37;;
67272;SDS011;54190;49.770;9.250;2023-04-25T02:13:52;4.43;;;3.30;;
67272;SDS011;54190;49.770;9.250;2023-04-25T02:16:38;4.73;;;3.47;;
67272;SDS011;54190;49.770;9.250;2023-04-25T02:19:06;4.30;;;3.30;;
67272;SDS011;54190;49.770;9.250;2023-04-25T02:21:32;6.93;;;3.60;;
67272;SDS011;54190;49.770;9.250;2023-04-25T02:23:57;3.97;;;2.90;;
67272;SDS011;54190;49.770;9.250;2023-04-25T02:26:23;5.63;;;3.40;;
67272;SDS011;54190;49.770;9.250;2023-04-25T02:28:50;4.80;;;3.60;;
67272;SDS011;54190;49.770;9.250;2023-04-25T02:31:18;6.43;;;3.97;;
67272;SDS011;54190;49.770;9.250;2023-04-25T02:33:43;6.33;;;3.83;;
67272;SDS011;54190;49.770;9.250;2023-04-25T02:36:09;5.10;;;4.03;;
67272;SDS011;54190;49.770;9.250;2023-04-25T02:38:35;5.33;;;4.17;;
67272;SDS011;54190;49.770;9.250;2023-04-25T02:41:03;5.70;;;4.00;;
67272;SDS011;54190;49.770;9.250;2023-04-25T02:43:29;6.90;;;4.17;;
67272;SDS011;54190;49.770;9.250;2023-04-25T02:45:55;5.00;;;4.10;;
67272;SDS011;54190;49.770;9.250;2023-04-25T02:48:20;5.63;;;4.43;;
67272;SDS011;54190;49.770;9.250;2023-04-25T02:50:47;6.83;;;5.27;;
67272;SDS011;54190;49.770;9.250;2023-04-25T02:53:13;9.80;;;4.90;;
67272;SDS011;54190;49.770;9.250;2023-04-25T02:55:44;5.97;;;4.63;;
67272;SDS011;54190;49.770;9.250;2023-04-25T02:58:10;5.87;;;4.77;;
67272;SDS011;54190;49.770;9.250;2023-04-25T03:00:42;7.30;;;4.83;;
67272;SDS011;54190;49.770;9.250;2023-04-25T03:03:08;7.20;;;5.10;;
67272;SDS011;54190;49.770;9.250;2023-04-25T03:05:34;7.20;;;5.40;;
67272;SDS011;54190;49.770;9.250;2023-04-25T03:08:00;6.70;;;5.37;;
67272;SDS011;54190;49.770;9.250;2023-04-25T03:10:26;9.13;;;5.70;;
67272;SDS011;54190;49.770;9.250;2023-04-25T03:12:53;8.10;;;5.70;;
67272;SDS011;54190;49.770;9.250;2023-04-25T03:15:18;12.60;;;6.33;;
67272;SDS011;54190;49.770;9.250;2023-04-25T03:17:44;7.77;;;5.37;;
67272;SDS011;54190;49.770;9.250;2023-04-25T03:20:10;6.80;;;5.07;;
67272;SDS011;54190;49.770;9.250;2023-04-25T03:22:36;7.10;;;5.50;;
67272;SDS011;54190;49.770;9.250;2023-04-25T03:25:02;7.73;;;5.80;;
67272;SDS011;54190;49.770;9.250;2023-04-25T03:27:28;7.53;;;5.50;;
67272;SDS011;54190;49.770;9.250;2023-04-25T03:29:54;7.50;;;5.30;;
67272;SDS011;54190;49.770;9.250;2023-04-25T03:32:20;6.73;;;5.40;;
67272;SDS011;54190;49.770;9.250;2023-04-25T03:34:45;6.57;;;4.87;;
67272;SDS011;54190;49.770;9.250;2023-04-25T03:37:11;8.13;;;5.20;;
67272;SDS011;54190;49.770;9.250;2023-04-25T03:39:37;8.20;;;6.07;;
67272;SDS011;54190;49.770;9.250;2023-04-25T03:42:03;8.47;;;6.00;;
67272;SDS011;54190;49.770;9.250;2023-04-25T03:44:30;7.20;;;5.07;;
67272;SDS011;54190;49.770;9.250;2023-04-25T03:46:55;9.20;;;6.23;;
67272;SDS011;54190;49.770;9.250;2023-04-25T03:49:22;7.50;;;5.50;;
67272;SDS011;54190;49.770;9.250;2023-04-25T03:51:59;9.90;;;6.17;;
67272;SDS011;54190;49.770;9.250;2023-04-25T03:54:26;7.80;;;5.73;;
67272;SDS011;54190;49.770;9.250;2023-04-25T03:56:56;8.90;;;5.80;;
67272;SDS011;54190;49.770;9.250;2023-04-25T03:59:25;8.90;;;5.90;;
67272;SDS011;54190;49.770;9.250;2023-04-25T04:01:51;7.70;;;5.40;;
67272;SDS011;54190;49.770;9.250;2023-04-25T04:04:17;12.03;;;5.90;;
67272;SDS011;54190;49.770;9.250;2023-04-25T04:06:44;13.43;;;5.80;;
67272;SDS011;54190;49.770;9.250;2023-04-25T04:09:20;9.30;;;6.30;;
67272;SDS011;54190;49.770;9.250;2023-04-25T04:11:46;8.37;;;6.37;;
67272;SDS011;54190;49.770;9.250;2023-04-25T04:14:12;9.30;;;6.70;;
67272;SDS011;54190;49.770;9.250;2023-04-25T04:16:42;8.33;;;6.43;;
67272;SDS011;54190;49.770;9.250;2023-04-25T04:19:08;7.80;;;5.40;;
67272;SDS011;54190;49.770;9.250;2023-04-25T04:21:34;8.43;;;5.93;;
67272;SDS011;54190;49.770;9.250;2023-04-25T04:24:01;6.87;;;5.23;;
67272;SDS011;54190;49.770;9.250;2023-04-25T04:26:31;9.10;;;6.47;;
67272;SDS011;54190;49.770;9.250;2023-04-25T04:29:07;9.13;;;5.50;;
67272;SDS011;54190;49.770;9.250;2023-04-25T04:31:45;7.10;;;5.50;;
67272;SDS011;54190;49.770;9.250;2023-04-25T04:34:14;8.63;;;6.20;;
67272;SDS011;54190;49.770;9.250;2023-04-25T04:36:41;8.97;;;6.07;;
67272;SDS011;54190;49.770;9.250;2023-04-25T04:39:07;7.57;;;5.80;;
67272;SDS011;54190;49.770;9.250;2023-04-25T04:41:37;7.87;;;5.50;;
67272;SDS011;54190;49.770;9.250;2023-04-25T04:44:26;7.83;;;5.63;;
67272;SDS011;54190;49.770;9.250;2023-04-25T04:47:12;7.90;;;6.07;;
67272;SDS011;54190;49.770;9.250;2023-04-25T04:49:59;8.13;;;6.50;;
67272;SDS011;54190;49.770;9.250;2023-04-25T04:52:31;11.00;;;7.80;;
67272;SDS011;54190;49.770;9.250;2023-04-25T04:55:31;10.53;;;6.30;;
67272;SDS011;54190;49.770;9.250;2023-04-25T04:58:15;8.93;;;6.33;;
67272;SDS011;54190;49.770;9.250;2023-04-25T05:00:49;9.10;;;6.70;;
67272;SDS011;54190;49.770;9.250;2023-04-25T05:03:33;10.30;;;6.70;;
67272;SDS011;54190;49.770;9.250;2023-04-25T05:06:11;7.10;;;6.17;;
67272;SDS011;54190;49.770;9.250;2023-04-25T05:08:57;9.40;;;6.90;;
67272;SDS011;54190;49.770;9.250;2023-04-25T05:11:48;8.93;;;6.70;;
67272;SDS011;54190;49.770;9.250;2023-04-25T05:14:25;8.97;;;7.07;;
67272;SDS011;54190;49.770;9.250;2023-04-25T05:17:27;8.90;;;6.50;;
67272;SDS011;54190;49.770;9.250;2023-04-25T05:20:08;10.90;;;6.93;;
67272;SDS011;54190;49.770;9.250;2023-04-25T05:22:53;8.57;;;6.40;;
67272;SDS011;54190;49.770;9.250;2023-04-25T05:25:30;10.57;;;7.20;;
67272;SDS011;54190;49.770;9.250;2023-04-25T05:28:05;8.43;;;6.53;;
67272;SDS011;54190;49.770;9.250;2023-04-25T05:30:56;9.90;;;6.73;;
67272;SDS011;54190;49.770;9.250;2023-04-25T05:33:41;9.30;;;6.90;;
67272;SDS011;54190;49.770;9.250;2023-04-25T05:36:06;8.93;;;6.70;;
67272;SDS011;54190;49.770;9.250;2023-04-25T05:38:33;9.83;;;7.33;;
67272;SDS011;54190;49.770;9.250;2023-04-25T05:41:19;11.00;;;7.30;;
67272;SDS011;54190;49.770;9.250;2023-04-25T05:43:50;9.90;;;7.30;;
67272;SDS011;54190;49.770;9.250;2023-04-25T05:46:25;11.43;;;7.80;;
67272;SDS011;54190;49.770;9.250;2023-04-25T05:49:26;11.50;;;7.03;;
67272;SDS011;54190;49.770;9.250;2023-04-25T05:52:04;12.10;;;7.70;;
67272;SDS011;54190;49.770;9.250;2023-04-25T05:54:32;16.13;;;8.57;;
67272;SDS011;54190;49.770;9.250;2023-04-25T05:56:58;11.63;;;8.50;;
67272;SDS011;54190;49.770;9.250;2023-04-25T05:59:24;12.03;;;8.07;;
67272;SDS011;54190;49.770;9.250;2023-04-25T06:01:50;16.63;;;9.20;;
67272;SDS011;54190;49.770;9.250;2023-04-25T06:04:17;11.30;;;8.40;;
67272;SDS011;54190;49.770;9.250;2023-04-25T06:06:42;13.70;;;8.53;;
67272;SDS011;54190;49.770;9.250;2023-04-25T06:09:08;12.60;;;8.73;;
67272;SDS011;54190;49.770;9.250;2023-04-25T06:11:34;11.27;;;7.60;;
67272;SDS011;54190;49.770;9.250;2023-04-25T06:14:00;13.97;;;8.87;;
67272;SDS011;54190;49.770;9.250;2023-04-25T06:16:26;11.50;;;7.80;;
67272;SDS011;54190;49.770;9.250;2023-04-25T06:18:52;13.80;;;9.47;;
67272;SDS011;54190;49.770;9.250;2023-04-25T06:21:17;13.10;;;7.80;;
67272;SDS011;54190;49.770;9.250;2023-04-25T06:23:43;17.27;;;8.30;;
67272;SDS011;54190;49.770;9.250;2023-04-25T06:26:11;16.10;;;8.73;;
67272;SDS011;54190;49.770;9.250;2023-04-25T06:28:39;16.50;;;9.27;;
67272;SDS011;54190;49.770;9.250;2023-04-25T06:31:05;13.57;;;8.20;;
67272;SDS011;54190;49.770;9.250;2023-04-25T06:33:31;16.20;;;8.50;;
67272;SDS011;54190;49.770;9.250;2023-04-25T06:35:57;18.23;;;9.70;;
67272;SDS011;54190;49.770;9.250;2023-04-25T06:38:25;18.20;;;9.17;;
67272;SDS011;54190;49.770;9.250;2023-04-25T06:40:52;15.20;;;9.37;;
67272;SDS011;54190;49.770;9.250;2023-04-25T06:43:18;23.53;;;10.77;;
67272;SDS011;54190;49.770;9.250;2023-04-25T06:46:01;23.50;;;10.73;;
67272;SDS011;54190;49.770;9.250;2023-04-25T06:48:30;21.77;;;9.67;;
67272;SDS011;54190;49.770;9.250;2023-04-25T06:50:57;18.00;;;9.10;;
67272;SDS011;54190;49.770;9.250;2023-04-25T06:53:23;14.60;;;9.57;;
67272;SDS011;54190;49.770;9.250;2023-04-25T06:55:54;19.60;;;10.00;;
67272;SDS011;54190;49.770;9.250;2023-04-25T06:58:22;13.33;;;7.73;;
67272;SDS011;54190;49.770;9.250;2023-04-25T07:00:50;13.80;;;8.30;;
67272;SDS011;54190;49.770;9.250;2023-04-25T07:03:17;17.43;;;9.20;;
67272;SDS011;54190;49.770;9.250;2023-04-25T07:05:43;16.83;;;9.07;;
67272;SDS011;54190;49.770;9.250;2023-04-25T07:08:10;20.20;;;11.23;;
67272;SDS011;54190;49.770;9.250;2023-04-25T07:10:36;17.17;;;10.60;;
67272;SDS011;54190;49.770;9.250;2023-04-25T07:13:02;16.60;;;9.00;;
67272;SDS011;54190;49.770;9.250;2023-04-25T07:15:29;13.87;;;8.10;;
67272;SDS011;54190;49.770;9.250;2023-04-25T07:17:55;14.23;;;7.87;;
67272;SDS011;54190;49.770;9.250;2023-04-25T07:20:21;11.80;;;6.83;;
67272;SDS011;54190;49.770;9.250;2023-04-25T07:22:47;14.73;;;7.63;;
67272;SDS011;54190;49.770;9.250;2023-04-25T07:25:12;15.10;;;7.30;;
67272;SDS011;54190;49.770;9.250;2023-04-25T07:27:38;13.33;;;7.10;;
67272;SDS011;54190;49.770;9.250;2023-04-25T07:30:16;14.70;;;7.17;;
67272;SDS011;54190;49.770;9.250;2023-04-25T07:32:42;11.50;;;7.60;;
67272;SDS011;54190;49.770;9.250;2023-04-25T07:35:08;12.83;;;6.40;;
67272;SDS011;54190;49.770;9.250;2023-04-25T07:37:34;13.03;;;6.73;;
67272;SDS011;54190;49.770;9.250;2023-04-25T07:40:09;9.60;;;6.40;;
67272;SDS011;54190;49.770;9.250;2023-04-25T07:42:39;12.70;;;6.97;;
67272;SDS011;54190;49.770;9.250;2023-04-25T07:45:05;15.93;;;6.57;;
67272;SDS011;54190;49.770;9.250;2023-04-25T07:47:31;9.27;;;5.47;;
67272;SDS011;54190;49.770;9.250;2023-04-25T07:49:57;10.23;;;5.00;;
67272;SDS011;54190;49.770;9.250;2023-04-25T07:52:23;10.33;;;5.03;;
67272;SDS011;54190;49.770;9.250;2023-04-25T07:54:55;12.40;;;5.27;;
67272;SDS011;54190;49.770;9.250;2023-04-25T07:57:28;12.57;;;6.27;;
67272;SDS011;54190;49.770;9.250;2023-04-25T07:59:56;8.97;;;5.07;;
67272;SDS011;54190;49.770;9.250;2023-04-25T08:02:22;10.33;;;5.27;;
67272;SDS011;54190;49.770;9.250;2023-04-25T08:04:48;8.00;;;4.30;;
67272;SDS011;54190;49.770;9.250;2023-04-25T08:07:16;10.00;;;5.20;;
67272;SDS011;54190;49.770;9.250;2023-04-25T08:09:49;9.90;;;5.10;;
67272;SDS011;54190;49.770;9.250;2023-04-25T08:12:23;8.63;;;4.90;;
67272;SDS011;54190;49.770;9.250;2023-04-25T08:14:50;11.70;;;4.40;;
67272;SDS011;54190;49.770;9.250;2023-04-25T08:17:16;9.87;;;5.40;;
67272;SDS011;54190;49.770;9.250;2023-04-25T08:19:42;9.53;;;5.60;;
67272;SDS011;54190;49.770;9.250;2023-04-25T08:22:15;8.50;;;4.63;;
67272;SDS011;54190;49.770;9.250;2023-04-25T08:24:49;9.47;;;4.43;;
67272;SDS011;54190;49.770;9.250;2023-04-25T08:27:17;11.37;;;5.23;;
67272;SDS011;54190;49.770;9.250;2023-04-25T08:29:43;6.93;;;4.70;;
67272;SDS011;54190;49.770;9.250;2023-04-25T08:32:08;11.00;;;5.57;;
67272;SDS011;54190;49.770;9.250;2023-04-25T08:34:39;7.90;;;5.53;;
67272;SDS011;54190;49.770;9.250;2023-04-25T08:37:08;14.07;;;6.00;;
67272;SDS011;54190;49.770;9.250;2023-04-25T08:39:44;8.83;;;4.97;;
67272;SDS011;54190;49.770;9.250;2023-04-25T08:42:34;6.93;;;4.23;;
67272;SDS011;54190;49.770;9.250;2023-04-25T08:45:03;8.07;;;4.30;;
67272;SDS011;54190;49.770;9.250;2023-04-25T08:47:33;10.10;;;4.17;;
67272;SDS011;54190;49.770;9.250;2023-04-25T08:50:00;8.00;;;5.23;;
67272;SDS011;54190;49.770;9.250;2023-04-25T08:52:30;7.60;;;4.60;;
67272;SDS011;54190;49.770;9.250;2023-04-25T08:55:01;6.63;;;4.97;;
67272;SDS011;54190;49.770;9.250;2023-04-25T08:57:28;9.13;;;5.33;;
67272;SDS011;54190;49.770;9.250;2023-04-25T08:59:56;8.27;;;4.60;;
67272;SDS011;54190;49.770;9.250;2023-04-25T09:02:23;7.67;;;4.83;;
67272;SDS011;54190;49.770;9.250;2023-04-25T09:04:50;7.90;;;4.00;;
67272;SDS011;54190;49.770;9.250;2023-04-25T09:07:19;10.00;;;4.60;;
67272;SDS011;54190;49.770;9.250;2023-04-25T09:09:46;5.93;;;3.77;;
67272;SDS011;54190;49.770;9.250;2023-04-25T09:12:17;8.43;;;5.40;;
67272;SDS011;54190;49.770;9.250;2023-04-25T09:14:43;6.30;;;3.90;;
67272;SDS011;54190;49.770;9.250;2023-04-25T09:17:42;15.90;;;7.80;;
67272;SDS011;54190;49.770;9.250;2023-04-25T09:20:11;7.20;;;4.53;;
67272;SDS011;54190;49.770;9.250;2023-04-25T09:22:39;7.27;;;4.20;;
67272;SDS011;54190;49.770;9.250;2023-04-25T09:25:12;11.80;;;6.27;;
67272;SDS011;54190;49.770;9.250;2023-04-25T09:27:50;10.37;;;4.83;;
67272;SDS011;54190;49.770;9.250;2023-04-25T09:30:31;11.67;;;4.70;;
67272;SDS011;54190;49.770;9.250;2023-04-25T09:33:26;8.00;;;3.73;;
67272;SDS011;54190;49.770;9.250;2023-04-25T09:36:01;8.53;;;4.27;;
67272;SDS011;54190;49.770;9.250;2023-04-25T09:38:43;8.10;;;5.40;;
67272;SDS011;54190;49.770;9.250;2023-04-25T09:41:30;7.00;;;3.80;;
67272;SDS011;54190;49.770;9.250;2023-04-25T09:44:00;12.87;;;6.20;;
67272;SDS011;54190;49.770;9.250;2023-04-25T09:46:33;7.90;;;4.20;;
67272;SDS011;54190;49.770;9.250;2023-04-25T09:49:08;10.20;;;5.00;;
67272;SDS011;54190;49.770;9.250;2023-04-25T09:51:53;7.93;;;4.77;;
67272;SDS011;54190;49.770;9.250;2023-04-25T09:54:25;7.93;;;4.37;;
67272;SDS011;54190;49.770;9.250;2023-04-25T09:57:02;6.33;;;4.10;;
67272;SDS011;54190;49.770;9.250;2023-04-25T09:59:36;10.37;;;5.47;;
67272;SDS011;54190;49.770;9.250;2023-04-25T10:02:08;7.50;;;4.27;;
67272;SDS011;54190;49.770;9.250;2023-04-25T10:04:36;6.67;;;3.87;;
67272;SDS011;54190;49.770;9.250;2023-04-25T10:07:07;12.97;;;4.80;;
67272;SDS011;54190;49.770;9.250;2023-04-25T10:09:36;8.47;;;4.17;;
67272;SDS011;54190;49.770;9.250;2023-04-25T10:12:04;9.03;;;4.60;;
67272;SDS011;54190;49.770;9.250;2023-04-25T10:14:32;6.63;;;3.80;;
67272;SDS011;54190;49.770;9.250;2023-04-25T10:16:59;8.03;;;4.03;;
67272;SDS011;54190;49.770;9.250;2023-04-25T10:19:25;7.57;;;4.27;;
67272;SDS011;54190;49.770;9.250;2023-04-25T10:21:52;11.30;;;5.10;;
67272;SDS011;54190;49.770;9.250;2023-04-25T10:24:42;6.17;;;3.50;;
67272;SDS011;54190;49.770;9.250;2023-04-25T10:27:09;6.03;;;3.67;;
67272;SDS011;54190;49.770;9.250;2023-04-25T10:29:36;8.23;;;4.00;;
67272;SDS011;54190;49.770;9.250;2023-04-25T10:32:02;9.77;;;4.60;;
67272;SDS011;54190;49.770;9.250;2023-04-25T10:34:37;7.77;;;3.93;;
67272;SDS011;54190;49.770;9.250;2023-04-25T10:37:05;7.47;;;4.17;;
67272;SDS011;54190;49.770;9.250;2023-04-25T10:39:34;6.97;;;4.00;;
67272;SDS011;54190;49.770;9.250;2023-04-25T10:42:00;8.70;;;5.27;;
67272;SDS011;54190;49.770;9.250;2023-04-25T10:44:28;5.60;;;3.90;;
67272;SDS011;54190;49.770;9.250;2023-04-25T10:46:57;6.77;;;3.67;;
67272;SDS011;54190;49.770;9.250;2023-04-25T10:49:28;9.30;;;4.50;;
67272;SDS011;54190;49.770;9.250;2023-04-25T10:52:40;6.30;;;4.27;;
67272;SDS011;54190;49.770;9.250;2023-04-25T10:54:59;8.67;;;4.80;;
67272;SDS011;54190;49.770;9.250;2023-04-25T10:57:31;6.80;;;4.33;;
67272;SDS011;54190;49.770;9.250;2023-04-25T11:00:18;5.30;;;3.97;;
67272;SDS011;54190;49.770;9.250;2023-04-25T11:02:48;9.77;;;5.17;;
67272;SDS011;54190;49.770;9.250;2023-04-25T11:05:29;7.67;;;4.37;;
67272;SDS011;54190;49.770;9.250;2023-04-25T11:07:57;12.33;;;4.67;;
67272;SDS011;54190;49.770;9.250;2023-04-25T11:10:25;11.03;;;4.50;;
67272;SDS011;54190;49.770;9.250;2023-04-25T11:12:54;7.50;;;4.37;;
67272;SDS011;54190;49.770;9.250;2023-04-25T11:15:20;8.47;;;4.83;;
67272;SDS011;54190;49.770;9.250;2023-04-25T11:17:46;9.43;;;4.73;;
67272;SDS011;54190;49.770;9.250;2023-04-25T11:20:12;6.43;;;4.67;;
67272;SDS011;54190;49.770;9.250;2023-04-25T11:22:40;7.70;;;4.07;;
67272;SDS011;54190;49.770;9.250;2023-04-25T11:25:10;6.53;;;4.20;;
67272;SDS011;54190;49.770;9.250;2023-04-25T11:27:53;14.70;;;8.10;;
67272;SDS011;54190;49.770;9.250;2023-04-25T11:30:20;8.43;;;5.00;;
67272;SDS011;54190;49.770;9.250;2023-04-25T11:32:46;7.20;;;3.60;;
67272;SDS011;54190;49.770;9.250;2023-04-25T11:35:12;6.70;;;4.00;;
67272;SDS011;54190;49.770;9.250;2023-04-25T11:37:39;9.30;;;3.97;;
67272;SDS011;54190;49.770;9.250;2023-04-25T11:40:05;6.87;;;4.33;;
67272;SDS011;54190;49.770;9.250;2023-04-25T11:42:32;7.77;;;4.20;;
67272;SDS011;54190;49.770;9.250;2023-04-25T11:44:58;8.07;;;4.20;;
67272;SDS011;54190;49.770;9.250;2023-04-25T11:47:29;9.40;;;4.43;;
67272;SDS011;54190;49.770;9.250;2023-04-25T11:49:58;10.97;;;4.00;;
67272;SDS011;54190;49.770;9.250;2023-04-25T11:52:34;8.00;;;4.27;;
67272;SDS011;54190;49.770;9.250;2023-04-25T11:55:08;7.23;;;4.50;;
67272;SDS011;54190;49.770;9.250;2023-04-25T11:57:41;7.40;;;4.53;;
67272;SDS011;54190;49.770;9.250;2023-04-25T12:00:13;7.07;;;4.17;;
67272;SDS011;54190;49.770;9.250;2023-04-25T12:02:42;7.73;;;4.20;;
67272;SDS011;54190;49.770;9.250;2023-04-25T12:05:12;9.60;;;4.47;;
67272;SDS011;54190;49.770;9.250;2023-04-25T12:07:40;6.63;;;4.47;;
67272;SDS011;54190;49.770;9.250;2023-04-25T12:12:36;6.70;;;4.93;;
67272;SDS011;54190;49.770;9.250;2023-04-25T12:17:41;11.73;;;4.43;;
67272;SDS011;54190;49.770;9.250;2023-04-25T12:20:10;7.13;;;4.00;;
67272;SDS011;54190;49.770;9.250;2023-04-25T12:22:41;7.40;;;4.57;;
67272;SDS011;54190;49.770;9.250;2023-04-25T12:25:12;6.13;;;4.13;;
67272;SDS011;54190;49.770;9.250;2023-04-25T12:28:08;8.40;;;5.40;;
67272;SDS011;54190;49.770;9.250;2023-04-25T12:31:06;7.60;;;4.60;;
67272;SDS011;54190;49.770;9.250;2023-04-25T12:33:36;10.43;;;4.60;;
67272;SDS011;54190;49.770;9.250;2023-04-25T12:36:03;9.00;;;5.30;;
67272;SDS011;54190;49.770;9.250;2023-04-25T12:38:35;8.90;;;6.10;;
67272;SDS011;54190;49.770;9.250;2023-04-25T12:41:02;9.20;;;4.77;;
67272;SDS011;54190;49.770;9.250;2023-04-25T12:43:28;9.47;;;6.13;;
67272;SDS011;54190;49.770;9.250;2023-04-25T12:45:55;10.23;;;5.70;;
67272;SDS011;54190;49.770;9.250;2023-04-25T12:48:21;11.57;;;6.13;;
67272;SDS011;54190;49.770;9.250;2023-04-25T12:50:47;10.10;;;6.90;;
67272;SDS011;54190;49.770;9.250;2023-04-25T12:53:21;9.77;;;6.00;;
67272;SDS011;54190;49.770;9.250;2023-04-25T12:55:49;11.33;;;6.40;;
67272;SDS011;54190;49.770;9.250;2023-04-25T12:58:15;14.40;;;6.13;;
67272;SDS011;54190;49.770;9.250;2023-04-25T13:00:43;11.80;;;6.20;;
67272;SDS011;54190;49.770;9.250;2023-04-25T13:03:09;10.63;;;6.30;;
67272;SDS011;54190;49.770;9.250;2023-04-25T13:05:38;15.00;;;8.87;;
67272;SDS011;54190;49.770;9.250;2023-04-25T13:08:04;9.70;;;6.10;;
67272;SDS011;54190;49.770;9.250;2023-04-25T13:10:30;10.03;;;6.33;;
67272;SDS011;54190;49.770;9.250;2023-04-25T13:12:58;6.77;;;4.20;;
67272;SDS011;54190;49.770;9.250;2023-04-25T13:15:24;9.30;;;4.80;;
67272;SDS011;54190;49.770;9.250;2023-04-25T13:17:50;7.90;;;5.43;;
67272;SDS011;54190;49.770;9.250;2023-04-25T13:20:15;9.40;;;5.13;;
67272;SDS011;54190;49.770;9.250;2023-04-25T13:22:42;14.67;;;7.90;;
67272;SDS011;54190;49.770;9.250;2023-04-25T13:25:08;8.10;;;5.47;;
67272;SDS011;54190;49.770;9.250;2023-04-25T13:27:34;7.20;;;4.70;;
67272;SDS011;54190;49.770;9.250;2023-04-25T13:30:01;5.87;;;4.27;;
67272;SDS011;54190;49.770;9.250;2023-04-25T13:32:32;8.73;;;5.47;;
67272;SDS011;54190;49.770;9.250;2023-04-25T13:34:58;9.67;;;5.43;;
67272;SDS011;54190;49.770;9.250;2023-04-25T13:37:24;8.10;;;5.03;;
67272;SDS011;54190;49.770;9.250;2023-04-25T13:39:50;9.10;;;5.30;;
67272;SDS011;54190;49.770;9.250;2023-04-25T13:42:16;10.40;;;4.90;;
67272;SDS011;54190;49.770;9.250;2023-04-25T13:44:41;9.67;;;5.03;;
67272;SDS011;54190;49.770;9.250;2023-04-25T13:47:07;6.27;;;4.20;;
67272;SDS011;54190;49.770;9.250;2023-04-25T13:49:32;10.20;;;5.80;;
67272;SDS011;54190;49.770;9.250;2023-04-25T13:51:58;13.10;;;7.07;;
67272;SDS011;54190;49.770;9.250;2023-04-25T13:54:24;9.50;;;5.63;;
67272;SDS011;54190;49.770;9.250;2023-04-25T13:56:50;10.53;;;4.57;;
67272;SDS011;54190;49.770;9.250;2023-04-25T13:59:15;6.90;;;5.17;;
67272;SDS011;54190;49.770;9.250;2023-04-25T14:01:42;11.10;;;5.57;;
67272;SDS011;54190;49.770;9.250;2023-04-25T14:04:07;9.30;;;4.30;;
67272;SDS011;54190;49.770;9.250;2023-04-25T14:06:33;11.83;;;5.30;;
67272;SDS011;54190;49.770;9.250;2023-04-25T14:09:00;7.70;;;4.60;;
67272;SDS011;54190;49.770;9.250;2023-04-25T14:11:26;10.07;;;4.67;;
67272;SDS011;54190;49.770;9.250;2023-04-25T14:13:51;8.50;;;5.60;;
67272;SDS011;54190;49.770;9.250;2023-04-25T14:16:17;6.57;;;4.20;;
67272;SDS011;54190;49.770;9.250;2023-04-25T14:18:43;6.73;;;4.40;;
67272;SDS011;54190;49.770;9.250;2023-04-25T14:21:08;7.33;;;4.43;;
67272;SDS011;54190;49.770;9.250;2023-04-25T14:23:35;7.47;;;4.30;;
67272;SDS011;54190;49.770;9.250;2023-04-25T14:26:00;7.50;;;4.43;;
67272;SDS011;54190;49.770;9.250;2023-04-25T14:28:26;12.83;;;5.63;;
67272;SDS011;54190;49.770;9.250;2023-04-25T14:30:52;7.20;;;4.03;;
67272;SDS011;54190;49.770;9.250;2023-04-25T14:33:17;7.63;;;4.13;;
67272;SDS011;54190;49.770;9.250;2023-04-25T14:35:43;9.30;;;4.50;;
67272;SDS011;54190;49.770;9.250;2023-04-25T14:38:09;7.73;;;3.77;;
67272;SDS011;54190;49.770;9.250;2023-04-25T14:40:35;8.87;;;4.40;;
67272;SDS011;54190;49.770;9.250;2023-04-25T14:43:00;7.40;;;4.77;;
67272;SDS011;54190;49.770;9.250;2023-04-25T14:45:26;6.73;;;3.80;;
67272;SDS011;54190;49.770;9.250;2023-04-25T14:47:52;13.07;;;4.50;;
67272;SDS011;54190;49.770;9.250;2023-04-25T14:50:17;6.33;;;3.90;;
67272;SDS011;54190;49.770;9.250;2023-04-25T14:52:43;9.90;;;4.23;;
67272;SDS011;54190;49.770;9.250;2023-04-25T14:55:10;6.10;;;4.20;;
67272;SDS011;54190;49.770;9.250;2023-04-25T14:57:36;6.90;;;4.20;;
67272;SDS011;54190;49.770;9.250;2023-04-25T15:00:03;8.67;;;4.57;;
67272;SDS011;54190;49.770;9.250;2023-04-25T15:02:31;9.13;;;4.10;;